createdAt,value
2018-01-30T00:01:07.833Z,19.40
2018-01-30T00:03:35.414Z,19.40
2018-01-30T00:06:03.775Z,19.40
2018-01-30T00:08:31.389Z,19.30
2018-01-30T00:10:58.985Z,19.30
2018-01-30T00:13:26.568Z,19.30
2018-01-30T00:15:54.918Z,19.30
2018-01-30T00:18:22.487Z,19.30
2018-01-30T00:20:50.052Z,19.20
2018-01-30T00:23:17.650Z,19.20
2018-01-30T00:25:45.259Z,19.20
2018-01-30T00:28:12.822Z,19.20
2018-01-30T00:30:40.396Z,19.20
2018-01-30T00:33:07.986Z,19.20
2018-01-30T00:35:36.331Z,19.20
2018-01-30T00:38:03.904Z,19.20
2018-01-30T00:40:31.491Z,19.20
2018-01-30T00:42:59.084Z,19.20
2018-01-30T00:45:26.657Z,19.20
2018-01-30T00:47:54.230Z,19.30
2018-01-30T00:50:21.830Z,19.30
2018-01-30T00:52:50.160Z,19.30
2018-01-30T00:55:17.763Z,19.30
2018-01-30T00:57:46.118Z,19.30
2018-01-30T01:00:13.693Z,19.30
2018-01-30T01:02:42.038Z,19.30
2018-01-30T01:05:09.606Z,19.30
2018-01-30T01:07:37.208Z,19.30
2018-01-30T01:10:05.543Z,19.30
2018-01-30T01:12:33.149Z,19.20
2018-01-30T01:15:00.717Z,19.30
2018-01-30T01:17:28.302Z,19.30
2018-01-30T01:19:55.900Z,19.30
2018-01-30T01:22:23.496Z,19.30
2018-01-30T01:24:51.111Z,19.30
2018-01-30T01:27:29.536Z,19.30
2018-01-30T01:29:57.124Z,19.30
2018-01-30T01:32:25.470Z,19.30
2018-01-30T01:34:53.055Z,19.30
2018-01-30T01:37:21.396Z,19.30
2018-01-30T01:39:48.969Z,19.30
2018-01-30T01:42:16.538Z,19.30
2018-01-30T01:44:44.123Z,19.30
2018-01-30T01:47:12.457Z,19.30
2018-01-30T01:49:40.039Z,19.30
2018-01-30T01:52:07.622Z,19.30
2018-01-30T01:54:35.970Z,19.30
2018-01-30T01:57:05.486Z,19.30
2018-01-30T01:59:33.079Z,19.30
2018-01-30T02:02:00.648Z,19.30
2018-01-30T02:04:28.235Z,19.30
2018-01-30T02:06:55.819Z,19.30
2018-01-30T02:09:23.406Z,19.30
2018-01-30T02:11:51.767Z,19.30
2018-01-30T02:14:19.343Z,19.20
2018-01-30T02:16:47.691Z,19.20
2018-01-30T02:19:15.288Z,19.20
2018-01-30T02:21:43.630Z,19.20
2018-01-30T02:24:11.215Z,19.30
2018-01-30T02:26:39.555Z,19.30
2018-01-30T02:29:07.151Z,19.20
2018-01-30T02:31:34.770Z,19.30
2018-01-30T02:34:02.356Z,19.30
2018-01-30T02:36:29.925Z,19.30
2018-01-30T02:38:57.515Z,19.30
2018-01-30T02:41:25.852Z,19.30
2018-01-30T02:43:53.470Z,19.30
2018-01-30T02:46:21.050Z,19.30
2018-01-30T02:48:48.628Z,19.30
2018-01-30T02:51:16.218Z,19.20
2018-01-30T02:53:43.804Z,19.30
2018-01-30T02:56:12.165Z,19.30
2018-01-30T02:58:40.497Z,19.30
2018-01-30T03:01:08.074Z,19.30
2018-01-30T03:03:35.651Z,19.30
2018-01-30T03:06:03.220Z,19.30
2018-01-30T03:08:31.595Z,19.30
2018-01-30T03:10:59.192Z,19.30
2018-01-30T03:13:26.768Z,19.30
2018-01-30T03:15:54.342Z,19.30
2018-01-30T03:18:21.935Z,19.30
2018-01-30T03:20:49.549Z,19.30
2018-01-30T03:23:17.150Z,19.30
2018-01-30T03:25:44.729Z,19.30
2018-01-30T03:28:13.072Z,19.30
2018-01-30T03:30:40.674Z,19.30
2018-01-30T03:33:09.040Z,19.30
2018-01-30T03:35:36.618Z,19.30
2018-01-30T03:38:04.966Z,19.30
2018-01-30T03:40:32.555Z,19.30
2018-01-30T03:43:00.896Z,19.40
2018-01-30T03:45:28.506Z,19.30
2018-01-30T03:47:56.837Z,19.30
2018-01-30T03:50:24.430Z,19.30
2018-01-30T03:52:52.770Z,19.30
2018-01-30T03:55:20.362Z,19.30
2018-01-30T03:57:47.983Z,19.30
2018-01-30T04:00:15.576Z,19.30
2018-01-30T04:02:43.163Z,19.30
2018-01-30T04:05:11.550Z,19.30
2018-01-30T04:07:39.137Z,19.30
2018-01-30T04:10:06.724Z,19.30
2018-01-30T04:12:34.340Z,19.30
2018-01-30T04:15:01.913Z,19.30
2018-01-30T04:17:29.520Z,19.30
2018-01-30T04:19:57.101Z,19.30
2018-01-30T04:22:25.484Z,19.20
2018-01-30T04:24:53.820Z,19.20
2018-01-30T04:27:24.450Z,19.20
2018-01-30T04:29:52.041Z,19.20
2018-01-30T04:32:19.632Z,19.20
2018-01-30T04:34:47.201Z,19.20
2018-01-30T04:37:14.801Z,19.20
2018-01-30T04:39:42.379Z,19.10
2018-01-30T04:42:09.950Z,19.10
2018-01-30T04:44:38.322Z,19.00
2018-01-30T04:47:05.914Z,19.00
2018-01-30T04:49:33.508Z,19.00
2018-01-30T04:52:04.123Z,19.00
2018-01-30T04:54:32.505Z,19.00
2018-01-30T04:57:00.098Z,19.00
2018-01-30T04:59:27.687Z,19.00
2018-01-30T05:01:56.038Z,19.00
2018-01-30T05:04:23.631Z,18.90
2018-01-30T05:06:51.982Z,19.00
2018-01-30T05:09:19.572Z,19.00
2018-01-30T05:11:47.916Z,19.00
2018-01-30T05:14:15.490Z,19.00
2018-01-30T05:16:43.061Z,19.00
2018-01-30T05:19:11.432Z,19.10
2018-01-30T05:21:39.027Z,19.00
2018-01-30T05:24:06.599Z,19.00
2018-01-30T05:26:34.182Z,19.10
2018-01-30T05:29:03.679Z,19.10
2018-01-30T05:31:31.260Z,19.10
2018-01-30T05:33:58.834Z,19.10
2018-01-30T05:36:26.432Z,19.10
2018-01-30T05:38:54.772Z,19.10
2018-01-30T05:41:22.345Z,19.10
2018-01-30T05:43:49.918Z,19.10
2018-01-30T05:46:18.268Z,19.10
2018-01-30T05:48:45.894Z,19.10
2018-01-30T05:51:13.482Z,19.20
2018-01-30T05:53:41.066Z,19.20
2018-01-30T05:56:08.658Z,19.20
2018-01-30T05:58:36.249Z,19.20
2018-01-30T06:01:03.871Z,19.20
2018-01-30T06:03:32.208Z,19.10
2018-01-30T06:05:59.790Z,19.10
2018-01-30T06:08:27.372Z,19.20
2018-01-30T06:10:55.704Z,19.20
2018-01-30T06:13:23.293Z,19.20
2018-01-30T06:15:51.640Z,19.20
2018-01-30T06:18:19.237Z,19.20
2018-01-30T06:20:47.574Z,19.20
2018-01-30T06:23:15.138Z,19.10
2018-01-30T06:25:42.749Z,19.10
2018-01-30T06:28:11.105Z,19.10
2018-01-30T06:30:38.695Z,19.00
2018-01-30T06:33:06.292Z,19.00
2018-01-30T06:35:33.875Z,19.00
2018-01-30T06:38:01.477Z,19.00
2018-01-30T06:40:29.054Z,19.00
2018-01-30T06:42:56.619Z,19.00
2018-01-30T06:45:24.185Z,19.00
2018-01-30T06:47:51.760Z,19.00
2018-01-30T06:50:19.344Z,19.00
2018-01-30T06:52:46.934Z,19.00
2018-01-30T06:55:15.314Z,19.00
2018-01-30T06:57:43.675Z,18.90
2018-01-30T07:00:12.918Z,18.90
2018-01-30T07:02:40.515Z,18.90
2018-01-30T07:05:08.100Z,18.90
2018-01-30T07:07:36.485Z,18.90
2018-01-30T07:10:04.852Z,18.90
2018-01-30T07:12:33.196Z,18.90
2018-01-30T07:15:00.794Z,18.90
2018-01-30T07:17:28.386Z,18.90
2018-01-30T07:20:16.094Z,18.80
2018-01-30T07:22:44.465Z,18.80
2018-01-30T07:25:12.058Z,18.70
2018-01-30T07:27:39.648Z,18.70
2018-01-30T07:30:08.036Z,18.70
2018-01-30T07:32:35.647Z,18.70
2018-01-30T07:35:03.985Z,18.70
2018-01-30T07:37:32.577Z,18.60
2018-01-30T07:40:00.170Z,18.60
2018-01-30T07:42:28.504Z,18.60
2018-01-30T07:44:56.089Z,18.60
2018-01-30T07:47:23.666Z,18.60
2018-01-30T07:49:52.031Z,18.60
2018-01-30T07:52:20.595Z,18.50
2018-01-30T07:54:48.172Z,18.60
2018-01-30T07:57:15.752Z,18.70
2018-01-30T07:59:47.635Z,18.90
2018-01-30T08:02:15.258Z,18.80
2018-01-30T08:04:42.846Z,19.00
2018-01-30T08:07:11.184Z,19.00
2018-01-30T08:09:44.076Z,19.00
2018-01-30T08:12:11.680Z,19.10
2018-01-30T08:14:39.298Z,19.10
2018-01-30T08:17:06.896Z,19.10
2018-01-30T08:19:34.486Z,19.10
2018-01-30T08:22:02.827Z,19.10
2018-01-30T08:24:30.423Z,19.10
2018-01-30T08:26:58.038Z,19.10
2018-01-30T08:29:26.395Z,19.10
2018-01-30T08:31:53.991Z,19.10
2018-01-30T08:34:22.354Z,19.10
2018-01-30T08:36:50.700Z,19.20
2018-01-30T08:39:18.305Z,19.10
2018-01-30T08:41:46.641Z,19.20
2018-01-30T08:44:14.209Z,19.20
2018-01-30T08:46:41.780Z,19.30
2018-01-30T08:49:09.365Z,19.30
2018-01-30T08:51:37.741Z,19.20
2018-01-30T08:54:06.103Z,19.30
2018-01-30T08:56:33.699Z,19.30
2018-01-30T08:59:01.292Z,19.30
2018-01-30T09:01:28.866Z,19.40
2018-01-30T09:03:56.488Z,19.50
2018-01-30T09:06:24.062Z,19.50
2018-01-30T09:08:51.642Z,19.60
2018-01-30T09:11:19.222Z,19.70
2018-01-30T09:13:46.810Z,19.90
2018-01-30T09:16:15.190Z,20.10
2018-01-30T09:18:43.525Z,20.20
2018-01-30T09:21:11.106Z,20.20
2018-01-30T09:23:38.691Z,20.40
2018-01-30T09:26:07.106Z,20.20
2018-01-30T09:28:34.747Z,20.20
2018-01-30T09:31:02.328Z,20.20
2018-01-30T09:33:29.906Z,20.10
2018-01-30T09:35:57.495Z,20.10
2018-01-30T09:38:25.085Z,20.20
2018-01-30T09:40:52.694Z,20.20
2018-01-30T09:43:20.282Z,20.30
2018-01-30T09:45:47.861Z,20.40
2018-01-30T09:48:15.446Z,20.40
2018-01-30T09:50:43.040Z,20.40
2018-01-30T09:53:10.628Z,20.50
2018-01-30T09:55:38.997Z,20.70
2018-01-30T09:58:06.602Z,20.70
2018-01-30T10:00:34.182Z,20.80
2018-01-30T10:03:01.757Z,20.90
2018-01-30T10:05:29.338Z,20.80
2018-01-30T10:07:56.926Z,20.60
2018-01-30T10:10:25.292Z,20.60
2018-01-30T10:12:53.653Z,20.70
2018-01-30T10:15:21.380Z,20.60
2018-01-30T10:17:49.051Z,20.50
2018-01-30T10:20:16.624Z,20.50
2018-01-30T10:22:44.233Z,20.50
2018-01-30T10:25:13.588Z,20.50
2018-01-30T10:27:41.182Z,20.50
2018-01-30T10:30:09.547Z,20.60
2018-01-30T10:32:37.135Z,20.60
2018-01-30T10:35:05.518Z,20.90
2018-01-30T10:37:33.874Z,20.80
2018-01-30T10:40:01.452Z,20.80
2018-01-30T10:42:29.792Z,20.90
2018-01-30T10:44:57.379Z,20.90
2018-01-30T10:47:26.607Z,20.90
2018-01-30T10:49:54.193Z,20.90
2018-01-30T10:52:21.801Z,20.90
2018-01-30T10:54:50.212Z,21.10
2018-01-30T10:57:17.785Z,21.10
2018-01-30T10:59:45.420Z,20.90
2018-01-30T11:02:13.774Z,20.80
2018-01-30T11:04:41.370Z,20.80
2018-01-30T11:07:08.952Z,20.80
2018-01-30T11:09:36.591Z,20.80
2018-01-30T11:12:04.246Z,20.70
2018-01-30T11:14:32.604Z,20.90
2018-01-30T11:17:00.231Z,20.80
2018-01-30T11:19:27.818Z,20.90
2018-01-30T11:21:55.398Z,21.00
2018-01-30T11:24:23.737Z,21.10
2018-01-30T11:26:51.316Z,21.10
2018-01-30T11:29:18.920Z,21.10
2018-01-30T11:31:46.514Z,21.20
2018-01-30T11:34:14.094Z,21.40
2018-01-30T11:36:41.680Z,21.50
2018-01-30T11:39:10.047Z,21.40
2018-01-30T11:41:37.661Z,21.30
2018-01-30T11:44:05.240Z,21.30
2018-01-30T11:46:32.809Z,21.20
2018-01-30T11:49:01.152Z,21.10
2018-01-30T11:51:28.748Z,21.10
2018-01-30T11:53:56.349Z,21.10
2018-01-30T11:56:25.711Z,21.00
2018-01-30T11:58:53.311Z,20.90
2018-01-30T12:01:21.674Z,20.80
2018-01-30T12:03:49.248Z,20.80
2018-01-30T12:06:17.620Z,20.80
2018-01-30T12:08:45.966Z,20.70
2018-01-30T12:11:14.305Z,20.60
2018-01-30T12:13:41.872Z,20.60
2018-01-30T12:16:09.455Z,20.60
2018-01-30T12:18:37.079Z,20.60
2018-01-30T12:21:05.482Z,20.60
2018-01-30T12:23:33.075Z,20.60
2018-01-30T12:26:01.686Z,20.70
2018-01-30T12:28:30.046Z,20.50
2018-01-30T12:30:58.008Z,20.50
2018-01-30T12:33:25.599Z,20.50
2018-01-30T12:35:54.147Z,20.60
2018-01-30T12:38:21.713Z,20.60
2018-01-30T12:40:49.823Z,20.60
2018-01-30T12:43:18.224Z,20.60
2018-01-30T12:45:45.810Z,20.60
2018-01-30T12:48:13.392Z,20.60
2018-01-30T12:50:40.965Z,20.50
2018-01-30T12:53:08.554Z,20.50
2018-01-30T12:55:36.928Z,20.40
2018-01-30T12:58:05.293Z,20.40
2018-01-30T13:00:33.642Z,20.50
2018-01-30T13:03:01.221Z,20.40
2018-01-30T13:05:28.807Z,20.40
2018-01-30T13:07:57.181Z,20.30
2018-01-30T13:10:25.535Z,20.30
2018-01-30T13:12:53.130Z,20.30
2018-01-30T13:15:21.473Z,20.50
2018-01-30T13:17:49.045Z,20.40
2018-01-30T13:20:16.646Z,20.60
2018-01-30T13:22:46.180Z,20.60
2018-01-30T13:25:13.787Z,20.60
2018-01-30T13:27:42.138Z,20.60
2018-01-30T13:30:09.730Z,20.60
2018-01-30T13:32:38.092Z,20.50
2018-01-30T13:35:06.431Z,20.40
2018-01-30T13:37:34.005Z,20.40
2018-01-30T13:40:01.595Z,20.40
2018-01-30T13:42:30.023Z,20.40
2018-01-30T13:44:57.632Z,20.30
2018-01-30T13:47:25.259Z,20.30
2018-01-30T13:49:52.829Z,20.30
2018-01-30T13:52:20.405Z,20.20
2018-01-30T13:54:47.970Z,20.20
2018-01-30T13:57:15.589Z,20.20
2018-01-30T13:59:43.166Z,20.10
2018-01-30T14:02:10.778Z,20.10
2018-01-30T14:04:39.159Z,20.10
2018-01-30T14:07:07.502Z,20.10
2018-01-30T14:09:35.100Z,20.00
2018-01-30T14:12:03.446Z,20.00
2018-01-30T14:14:31.045Z,20.00
2018-01-30T14:16:58.619Z,20.00
2018-01-30T14:19:26.222Z,20.00
2018-01-30T14:21:53.842Z,20.00
2018-01-30T14:24:21.426Z,19.90
2018-01-30T14:26:49.007Z,19.90
2018-01-30T14:29:16.601Z,19.90
2018-01-30T14:31:44.936Z,19.90
2018-01-30T14:34:12.575Z,19.80
2018-01-30T14:36:40.177Z,19.80
2018-01-30T14:39:07.766Z,19.80
2018-01-30T14:41:36.115Z,19.80
2018-01-30T14:44:03.701Z,19.80
2018-01-30T14:46:32.078Z,19.80
2018-01-30T14:49:00.416Z,19.80
2018-01-30T14:51:28.021Z,19.80
2018-01-30T14:53:56.370Z,19.80
2018-01-30T14:56:23.957Z,19.80
2018-01-30T14:58:52.336Z,19.80
2018-01-30T15:01:20.680Z,19.80
2018-01-30T15:03:48.267Z,19.80
2018-01-30T15:06:16.620Z,19.80
2018-01-30T15:08:44.235Z,19.70
2018-01-30T15:11:11.905Z,19.70
2018-01-30T15:13:39.502Z,19.70
2018-01-30T15:16:08.074Z,19.70
2018-01-30T15:18:37.585Z,19.70
2018-01-30T15:21:05.157Z,19.70
2018-01-30T15:23:32.765Z,19.70
2018-01-30T15:26:01.135Z,19.70
2018-01-30T15:28:29.482Z,19.60
2018-01-30T15:30:57.070Z,19.60
2018-01-30T15:33:25.424Z,19.60
2018-01-30T15:35:53.027Z,19.60
2018-01-30T15:38:20.614Z,19.60
2018-01-30T15:40:48.231Z,19.60
2018-01-30T15:43:16.573Z,19.50
2018-01-30T15:45:44.145Z,19.50
2018-01-30T15:48:11.744Z,19.60
2018-01-30T15:50:40.083Z,19.50
2018-01-30T15:53:07.659Z,19.50
2018-01-30T15:55:35.247Z,19.50
2018-01-30T15:58:02.874Z,19.50
2018-01-30T16:00:31.730Z,19.50
2018-01-30T16:02:59.319Z,19.50
2018-01-30T16:05:26.900Z,19.50
2018-01-30T16:07:57.210Z,19.40
2018-01-30T16:10:24.797Z,19.40
2018-01-30T16:12:53.156Z,19.40
2018-01-30T16:15:20.751Z,19.40
2018-01-30T16:17:48.324Z,19.40
2018-01-30T16:20:15.911Z,19.40
2018-01-30T16:22:44.303Z,19.40
2018-01-30T16:25:12.726Z,19.40
2018-01-30T16:27:44.963Z,19.40
2018-01-30T16:30:12.574Z,19.40
2018-01-30T16:32:40.199Z,19.40
2018-01-30T16:35:07.774Z,19.40
2018-01-30T16:37:36.117Z,19.30
2018-01-30T16:40:03.708Z,19.30
2018-01-30T16:42:32.047Z,19.20
2018-01-30T16:44:59.616Z,19.20
2018-01-30T16:47:29.285Z,19.20
2018-01-30T16:49:58.894Z,19.20
2018-01-30T16:52:26.467Z,19.20
2018-01-30T16:54:54.174Z,19.10
2018-01-30T16:57:22.747Z,19.20
2018-01-30T16:59:50.347Z,19.10
2018-01-30T17:02:17.967Z,19.10
2018-01-30T17:04:45.554Z,19.10
2018-01-30T17:07:14.902Z,19.10
2018-01-30T17:09:42.490Z,19.10
2018-01-30T17:12:10.115Z,19.10
2018-01-30T17:14:37.717Z,19.20
2018-01-30T17:17:05.305Z,19.20
2018-01-30T17:19:33.651Z,19.20
2018-01-30T17:22:01.246Z,19.20
2018-01-30T17:24:29.624Z,19.20
2018-01-30T17:26:57.952Z,19.20
2018-01-30T17:29:26.461Z,19.20
2018-01-30T17:31:54.044Z,19.20
2018-01-30T17:34:22.387Z,19.20
2018-01-30T17:36:49.995Z,19.20
2018-01-30T17:39:18.346Z,19.20
2018-01-30T17:41:45.920Z,19.20
2018-01-30T17:44:14.280Z,19.20
2018-01-30T17:46:41.856Z,19.20
2018-01-30T17:49:09.457Z,19.30
2018-01-30T17:51:37.034Z,19.20
2018-01-30T17:54:04.611Z,19.20
2018-01-30T17:56:32.230Z,19.20
2018-01-30T17:58:59.801Z,19.20
2018-01-30T18:01:27.401Z,19.20
2018-01-30T18:03:58.426Z,19.20
2018-01-30T18:06:26.185Z,19.20
2018-01-30T18:08:53.810Z,19.20
2018-01-30T18:11:22.167Z,19.30
2018-01-30T18:13:51.757Z,19.20
2018-01-30T18:16:19.339Z,19.30
2018-01-30T18:18:50.875Z,19.20
2018-01-30T18:21:18.454Z,19.20
2018-01-30T18:23:46.800Z,19.20
2018-01-30T18:26:14.396Z,19.20
2018-01-30T18:28:42.750Z,19.20
2018-01-30T18:31:10.343Z,19.20
2018-01-30T18:33:38.698Z,19.20
2018-01-30T18:36:06.266Z,19.20
2018-01-30T18:38:33.862Z,19.20
2018-01-30T18:41:01.451Z,19.20
2018-01-30T18:43:29.024Z,19.20
2018-01-30T18:45:56.617Z,19.20
2018-01-30T18:48:24.962Z,19.20
2018-01-30T18:50:52.543Z,19.20
2018-01-30T18:53:23.865Z,19.20
2018-01-30T18:55:51.458Z,19.20
2018-01-30T18:58:19.042Z,19.30
2018-01-30T19:00:47.391Z,19.30
2018-01-30T19:03:14.962Z,19.30
2018-01-30T19:05:42.553Z,19.30
2018-01-30T19:08:10.122Z,19.30
2018-01-30T19:10:37.706Z,19.30
2018-01-30T19:13:05.307Z,19.20
2018-01-30T19:15:33.964Z,19.30
2018-01-30T19:18:06.674Z,19.30
2018-01-30T19:20:36.052Z,19.30
2018-01-30T19:23:03.640Z,19.30
2018-01-30T19:25:31.984Z,19.30
2018-01-30T19:27:59.553Z,19.30
2018-01-30T19:30:27.125Z,19.30
2018-01-30T19:32:54.757Z,19.30
2018-01-30T19:35:22.809Z,19.30
2018-01-30T19:37:50.882Z,19.30
2018-01-30T19:40:19.009Z,19.30
2018-01-30T19:42:47.383Z,19.30
2018-01-30T19:45:16.822Z,19.30
2018-01-30T19:47:45.156Z,19.30
2018-01-30T19:50:12.721Z,19.30
2018-01-30T19:52:42.305Z,19.30
2018-01-30T19:55:09.890Z,19.30
2018-01-30T19:57:54.147Z,19.20
2018-01-30T20:00:21.744Z,19.20
2018-01-30T20:02:49.313Z,19.20
2018-01-30T20:05:16.899Z,19.20
2018-01-30T20:07:44.480Z,19.20
2018-01-30T20:10:12.084Z,19.20
2018-01-30T20:12:39.693Z,19.20
2018-01-30T20:15:12.723Z,19.10
2018-01-30T20:17:41.077Z,19.10
2018-01-30T20:20:12.756Z,19.10
2018-01-30T20:22:41.307Z,19.20
2018-01-30T20:25:09.115Z,19.20
2018-01-30T20:27:39.429Z,19.20
2018-01-30T20:30:07.794Z,19.20
2018-01-30T20:32:35.382Z,19.10
2018-01-30T20:35:03.736Z,19.10
2018-01-30T20:37:31.348Z,19.10
2018-01-30T20:39:58.940Z,19.10
2018-01-30T20:42:26.554Z,19.10
2018-01-30T20:44:54.136Z,19.10
2018-01-30T20:47:22.285Z,19.10
2018-01-30T20:49:49.879Z,19.10
2018-01-30T20:52:17.479Z,19.10
2018-01-30T20:54:45.098Z,19.10
2018-01-30T20:57:18.477Z,19.10
2018-01-30T20:59:46.102Z,19.10
2018-01-30T21:02:14.463Z,19.10
2018-01-30T21:04:42.053Z,19.00
2018-01-30T21:07:10.397Z,19.00
2018-01-30T21:09:38.974Z,19.00
2018-01-30T21:12:06.704Z,19.00
2018-01-30T21:14:34.383Z,19.00
2018-01-30T21:17:01.984Z,19.00
2018-01-30T21:19:30.686Z,19.00
2018-01-30T21:21:59.048Z,19.00
2018-01-30T21:24:26.630Z,18.90
2018-01-30T21:26:54.991Z,19.00
2018-01-30T21:29:22.558Z,18.90
2018-01-30T21:31:50.916Z,18.90
2018-01-30T21:34:18.526Z,18.90
2018-01-30T21:36:46.128Z,18.90
2018-01-30T21:39:13.714Z,18.90
2018-01-30T21:41:41.307Z,18.90
2018-01-30T21:44:10.150Z,18.90
2018-01-30T21:46:37.765Z,18.90
2018-01-30T21:49:05.356Z,18.90
2018-01-30T21:51:32.938Z,18.90
2018-01-30T21:54:00.512Z,18.90
2018-01-30T21:56:28.088Z,18.90
2018-01-30T21:58:56.478Z,18.90
2018-01-30T22:01:24.111Z,18.90
2018-01-30T22:03:51.703Z,18.90
2018-01-30T22:06:19.293Z,18.90
2018-01-30T22:08:46.869Z,18.90
2018-01-30T22:11:14.474Z,18.90
2018-01-30T22:13:42.812Z,18.90
2018-01-30T22:16:10.427Z,18.90
2018-01-30T22:18:38.002Z,18.90
2018-01-30T22:21:05.587Z,18.90
2018-01-30T22:23:33.202Z,18.90
2018-01-30T22:26:01.576Z,19.00
2018-01-30T22:28:29.929Z,19.00
2018-01-30T22:30:57.509Z,18.90
2018-01-30T22:33:25.858Z,19.00
2018-01-30T22:35:53.461Z,18.90
2018-01-30T22:38:21.807Z,19.00
2018-01-30T22:40:49.395Z,19.00
2018-01-30T22:43:17.741Z,19.00
2018-01-30T22:45:45.321Z,19.00
